Time;durP1;ratioP1;P1;durP2;ratioP2;P2;SDS_P1;SDS_P2;PMS_P1;PMS_P2;Temp;Humidity;BMP_temperature;BMP_pressure;BME280_temperature;BME280_humidity;BME280_pressure;Samples;Min_cycle;Max_cycle;Signal;HPM_P1;HPM_P2
2022/11/18 00:02:45;;;;;;;2.30;2.10;;;21.70;94.00;;;;;;6239986;28;94161;-72
2022/11/18 00:05:54;;;;;;;2.70;2.50;;;21.80;94.00;;;;;;6252695;28;93074;-72
2022/11/18 00:08:58;;;;;;;2.58;2.38;;;21.80;94.00;;;;;;6252039;28;93394;-72
2022/11/18 00:15:19;;;;;;;2.80;2.53;;;21.70;94.00;;;;;;6252628;28;92705;-72
2022/11/18 00:18:21;;;;;;;2.50;2.30;;;21.70;94.00;;;;;;6243728;28;97151;-72
2022/11/18 00:21:24;;;;;;;3.10;2.67;;;21.70;94.00;;;;;;6252518;28;94353;-73
2022/11/18 00:24:27;;;;;;;2.60;2.40;;;21.70;94.00;;;;;;6252607;28;94304;-72
2022/11/18 00:27:30;;;;;;;2.67;2.30;;;21.70;94.00;;;;;;6239436;28;93082;-72
2022/11/18 00:30:32;;;;;;;2.38;2.17;;;21.70;94.00;;;;;;6252354;28;94128;-70
2022/11/18 00:33:35;;;;;;;2.42;2.25;;;21.70;94.00;;;;;;6260082;27;94283;-72
2022/11/18 00:36:39;;;;;;;2.33;2.13;;;21.70;94.10;;;;;;6252847;28;93144;-73
2022/11/18 00:39:41;;;;;;;2.55;2.22;;;21.70;94.00;;;;;;6252884;28;93606;-71
2022/11/18 00:42:52;;;;;;;2.45;2.22;;;21.70;94.00;;;;;;6251209;28;92986;-72
2022/11/18 00:45:54;;;;;;;2.30;2.10;;;21.70;94.10;;;;;;6252538;28;94273;-72
2022/11/18 00:48:56;;;;;;;2.35;2.15;;;21.70;94.10;;;;;;6242229;28;95207;-73
2022/11/18 00:52:00;;;;;;;2.35;2.15;;;21.60;94.00;;;;;;6256053;28;94804;-73
2022/11/18 00:55:02;;;;;;;2.25;2.05;;;21.70;94.10;;;;;;6256091;28;94341;-72
2022/11/18 00:58:04;;;;;;;2.67;2.35;;;21.60;94.00;;;;;;6255794;28;94359;-72
2022/11/18 01:01:06;;;;;;;2.50;2.30;;;21.60;94.00;;;;;;6255594;28;94310;-71
2022/11/18 01:04:08;;;;;;;3.38;2.42;;;21.60;94.00;;;;;;6256328;28;94185;-72
2022/11/18 01:07:11;;;;;;;2.53;2.30;;;21.60;94.00;;;;;;6256091;28;94204;-72
2022/11/18 01:10:13;;;;;;;2.30;2.10;;;21.60;94.00;;;;;;6256922;28;93381;-72
2022/11/18 01:13:20;;;;;;;2.50;2.30;;;21.60;94.00;;;;;;6255152;28;94105;-72
2022/11/18 01:16:24;;;;;;;2.50;2.30;;;21.60;94.00;;;;;;6253410;28;94223;-72
2022/11/18 01:19:26;;;;;;;2.30;2.10;;;21.60;94.00;;;;;;6242404;27;95029;-72
2022/11/18 01:22:29;;;;;;;2.50;2.30;;;21.60;94.10;;;;;;6251567;28;94270;-73
2022/11/18 01:25:32;;;;;;;2.58;2.33;;;21.60;94.10;;;;;;6256029;28;93040;-71
2022/11/18 01:28:34;;;;;;;2.70;2.42;;;21.60;94.10;;;;;;6250771;28;94272;-72
2022/11/18 01:31:37;;;;;;;2.47;2.28;;;21.50;94.10;;;;;;6258374;27;94261;-72
2022/11/18 01:34:39;;;;;;;2.42;2.22;;;21.60;94.10;;;;;;6255735;28;94194;-73
2022/11/18 01:37:42;;;;;;;2.10;2.00;;;21.60;94.00;;;;;;6241550;28;94426;-72
2022/11/18 01:40:44;;;;;;;2.53;2.20;;;21.60;94.00;;;;;;6255518;27;92825;-72
2022/11/18 01:43:53;;;;;;;2.17;1.98;;;21.60;94.00;;;;;;6254713;28;94366;-72
2022/11/18 01:46:54;;;;;;;2.33;2.13;;;21.60;94.00;;;;;;6254500;27;94044;-72
2022/11/18 01:49:58;;;;;;;2.10;2.00;;;21.60;94.00;;;;;;6254102;28;94047;-71
2022/11/18 01:53:05;;;;;;;2.58;2.38;;;21.50;94.00;;;;;;6252959;28;94352;-72
2022/11/18 01:56:11;;;;;;;2.25;2.05;;;21.60;94.10;;;;;;6256244;27;94114;-72
2022/11/18 01:59:18;;;;;;;2.50;2.30;;;21.50;94.00;;;;;;6259090;27;94095;-72
2022/11/18 02:02:22;;;;;;;2.08;1.90;;;21.50;94.10;;;;;;6255380;27;94549;-71
2022/11/18 02:05:25;;;;;;;2.42;2.22;;;21.50;94.10;;;;;;6254577;28;94198;-71
2022/11/18 02:08:30;;;;;;;2.25;2.05;;;21.50;94.10;;;;;;6252135;28;94942;-72
2022/11/18 02:11:53;;;;;;;2.65;2.33;;;21.50;94.10;;;;;;6254698;28;93626;-72
2022/11/18 02:14:55;;;;;;;2.10;1.90;;;21.50;94.00;;;;;;6248535;28;94206;-72
2022/11/18 02:18:04;;;;;;;2.20;2.00;;;21.50;94.00;;;;;;6250600;27;94273;-71
2022/11/18 02:21:21;;;;;;;2.28;2.08;;;21.50;94.00;;;;;;6255280;28;95457;-72
2022/11/18 02:24:40;;;;;;;2.17;1.98;;;21.40;94.00;;;;;;6243325;28;94212;-72
2022/11/18 02:28:22;;;;;;;2.10;2.00;;;21.50;94.00;;;;;;6251468;28;94199;-71
2022/11/18 02:31:32;;;;;;;2.17;2.00;;;21.50;94.00;;;;;;6253847;27;94035;-72
2022/11/18 02:34:41;;;;;;;2.03;1.80;;;21.50;94.10;;;;;;6254209;28;94038;-72
2022/11/18 02:37:49;;;;;;;2.30;2.10;;;21.40;94.00;;;;;;6254305;28;94179;-72
2022/11/18 02:40:57;;;;;;;2.40;2.20;;;21.40;94.00;;;;;;6246469;28;94476;-72
2022/11/18 02:44:04;;;;;;;2.33;2.13;;;21.40;94.10;;;;;;6252606;28;93519;-72
2022/11/18 02:47:11;;;;;;;2.20;2.00;;;21.40;94.10;;;;;;6253962;28;94223;-72
2022/11/18 02:50:16;;;;;;;2.20;2.00;;;21.40;94.10;;;;;;6254049;28;94189;-72
2022/11/18 02:53:20;;;;;;;2.20;2.00;;;21.40;94.10;;;;;;6252603;28;95311;-72
2022/11/18 02:56:25;;;;;;;2.10;1.90;;;21.40;94.10;;;;;;6250703;28;94254;-72
2022/11/18 02:59:28;;;;;;;2.17;1.98;;;21.40;94.00;;;;;;6247149;28;95137;-72
2022/11/18 03:02:41;;;;;;;1.88;1.77;;;21.40;94.10;;;;;;6254778;28;94258;-71
2022/11/18 03:05:49;;;;;;;2.17;1.98;;;21.40;94.00;;;;;;6254613;28;94594;-73
2022/11/18 03:09:00;;;;;;;1.90;1.80;;;21.40;94.10;;;;;;6241640;27;94345;-72
2022/11/18 03:12:11;;;;;;;2.10;1.90;;;21.40;94.10;;;;;;6240235;28;94166;-73
2022/11/18 03:15:23;;;;;;;2.30;2.10;;;21.40;94.10;;;;;;6239505;28;92464;-73
2022/11/18 03:18:32;;;;;;;2.15;1.95;;;21.40;94.10;;;;;;6253591;28;94298;-73
2022/11/18 03:21:39;;;;;;;2.20;2.00;;;21.40;94.10;;;;;;6254123;28;94201;-73
2022/11/18 03:24:45;;;;;;;2.10;1.90;;;21.40;94.10;;;;;;6250763;28;95206;-72
2022/11/18 03:27:54;;;;;;;3.35;2.42;;;21.40;94.10;;;;;;6253270;28;94896;-72
2022/11/18 03:31:02;;;;;;;2.25;2.05;;;21.40;94.20;;;;;;6259222;27;94160;-72
2022/11/18 03:34:09;;;;;;;2.05;1.85;;;21.30;94.10;;;;;;6251560;28;94549;-73
2022/11/18 03:37:14;;;;;;;1.95;1.85;;;21.30;94.10;;;;;;6252386;28;94503;-72
2022/11/18 03:40:21;;;;;;;2.10;1.90;;;21.40;94.10;;;;;;6252716;28;94240;-73
2022/11/18 03:43:26;;;;;;;2.15;1.95;;;21.40;94.10;;;;;;6253418;28;94272;-73
2022/11/18 03:46:36;;;;;;;2.28;2.08;;;21.40;94.10;;;;;;6249989;28;93867;-73
2022/11/18 03:49:45;;;;;;;2.08;1.88;;;21.40;94.10;;;;;;6252187;28;93064;-73
2022/11/18 03:52:49;;;;;;;1.92;1.83;;;21.40;94.10;;;;;;6251784;27;94378;-72
2022/11/18 03:55:56;;;;;;;2.00;1.80;;;21.30;94.10;;;;;;6252225;28;95269;-73
2022/11/18 03:59:05;;;;;;;2.33;1.90;;;21.30;94.10;;;;;;6253011;28;94239;-73
2022/11/18 04:02:12;;;;;;;1.92;1.80;;;21.30;94.10;;;;;;6253513;28;94305;-72
2022/11/18 04:05:18;;;;;;;1.90;1.80;;;21.30;94.10;;;;;;6253572;28;94187;-74
2022/11/18 04:08:23;;;;;;;1.85;1.75;;;21.30;94.10;;;;;;6252042;28;95082;-73
2022/11/18 04:15:01;;;;;;;2.20;2.00;;;21.30;94.10;;;;;;6173058;28;92637;-72
2022/11/18 04:18:03;;;;;;;1.92;1.77;;;21.30;94.10;;;;;;6248829;27;93486;-73
2022/11/18 04:21:07;;;;;;;2.08;1.88;;;21.30;94.10;;;;;;6252892;27;94262;-73
2022/11/18 04:24:09;;;;;;;2.00;1.90;;;21.30;94.10;;;;;;6250309;28;94203;-72
2022/11/18 04:27:11;;;;;;;2.00;1.90;;;21.30;94.10;;;;;;6252336;28;95212;-73
2022/11/18 04:30:14;;;;;;;2.83;2.20;;;21.30;94.10;;;;;;6252336;27;94201;-71
2022/11/18 04:33:16;;;;;;;2.33;2.10;;;21.30;94.10;;;;;;6261913;27;94198;-72
2022/11/18 04:36:19;;;;;;;2.20;2.00;;;21.30;94.20;;;;;;6240399;28;94122;-71
2022/11/18 04:39:21;;;;;;;2.30;2.10;;;21.30;94.20;;;;;;6251377;28;94156;-71
2022/11/18 04:42:23;;;;;;;2.15;1.95;;;21.30;94.20;;;;;;6251906;28;94603;-72
2022/11/18 04:45:25;;;;;;;2.03;1.83;;;21.30;94.20;;;;;;6252040;28;94097;-72
2022/11/18 04:48:27;;;;;;;1.90;1.80;;;21.30;94.20;;;;;;6252144;28;93812;-72
2022/11/18 04:51:31;;;;;;;1.80;1.70;;;21.30;94.10;;;;;;6251504;28;94204;-72
2022/11/18 04:54:33;;;;;;;2.20;2.00;;;21.30;94.10;;;;;;6251076;28;94175;-73
2022/11/18 04:57:35;;;;;;;2.10;1.90;;;21.30;94.10;;;;;;6250274;28;95249;-74
2022/11/18 05:00:37;;;;;;;1.88;1.77;;;21.30;94.00;;;;;;6251498;28;93072;-74
2022/11/18 05:03:39;;;;;;;2.05;1.85;;;21.30;94.00;;;;;;6250836;28;94048;-74
2022/11/18 05:06:43;;;;;;;2.22;2.03;;;21.30;94.00;;;;;;6251471;28;94300;-72
2022/11/18 05:09:45;;;;;;;2.30;2.10;;;21.40;94.00;;;;;;6250579;28;94166;-72
2022/11/18 05:12:49;;;;;;;2.33;2.13;;;21.30;93.90;;;;;;6251533;28;94137;-72
2022/11/18 05:15:51;;;;;;;1.92;1.83;;;21.40;94.00;;;;;;6245546;28;93940;-71
2022/11/18 05:18:53;;;;;;;2.20;2.00;;;21.40;94.00;;;;;;6253179;28;93845;-72
2022/11/18 05:21:57;;;;;;;2.03;1.83;;;21.40;94.00;;;;;;6251568;28;97538;-72
2022/11/18 05:24:59;;;;;;;2.70;2.08;;;21.40;94.00;;;;;;6250571;27;93046;-72
2022/11/18 05:28:00;;;;;;;2.08;1.88;;;21.40;93.90;;;;;;6251813;28;95234;-73
2022/11/18 05:31:07;;;;;;;2.17;1.98;;;21.50;93.90;;;;;;6250112;27;94452;-71
2022/11/18 05:34:09;;;;;;;2.38;2.17;;;21.50;93.90;;;;;;6252781;27;94470;-72
2022/11/18 05:37:12;;;;;;;2.20;2.00;;;21.50;93.90;;;;;;6255046;28;94165;-71
2022/11/18 05:40:14;;;;;;;2.03;1.83;;;21.50;93.90;;;;;;6255721;28;94459;-75
2022/11/18 05:43:15;;;;;;;2.58;2.20;;;21.50;93.90;;;;;;6255059;28;94349;-75
2022/11/18 05:46:17;;;;;;;2.67;2.30;;;21.50;93.90;;;;;;6255522;28;94000;-74
2022/11/18 05:49:19;;;;;;;2.10;1.90;;;21.50;93.90;;;;;;6256113;28;93552;-72
2022/11/18 05:52:23;;;;;;;2.50;2.17;;;21.50;93.90;;;;;;6255268;28;94453;-72
2022/11/18 05:55:29;;;;;;;2.20;2.00;;;21.50;93.90;;;;;;6247705;28;93234;-71
2022/11/18 05:58:31;;;;;;;2.17;1.98;;;21.60;93.90;;;;;;6253738;28;95248;-72
2022/11/18 06:01:38;;;;;;;2.22;2.03;;;21.50;93.80;;;;;;6253031;27;94496;-72
2022/11/18 06:04:42;;;;;;;2.00;1.80;;;21.50;93.80;;;;;;6253718;28;94251;-72
2022/11/18 06:07:46;;;;;;;1.90;1.80;;;21.60;93.80;;;;;;6254336;28;94283;-72
2022/11/18 06:10:49;;;;;;;3.05;2.28;;;21.60;93.80;;;;;;6253989;28;94582;-72
2022/11/18 06:13:59;;;;;;;2.10;1.90;;;21.60;93.80;;;;;;6255129;28;94380;-70
2022/11/18 06:17:05;;;;;;;2.03;1.92;;;21.60;93.70;;;;;;6251937;27;94113;-71
2022/11/18 06:20:08;;;;;;;1.98;1.80;;;21.60;93.80;;;;;;6254750;27;93526;-72
2022/11/18 06:23:12;;;;;;;2.03;1.92;;;21.60;93.70;;;;;;6254109;28;94431;-71
2022/11/18 06:26:15;;;;;;;2.00;1.90;;;21.60;93.80;;;;;;6254446;27;94120;-72
2022/11/18 06:29:19;;;;;;;2.00;1.90;;;21.60;93.70;;;;;;6253317;28;95445;-70
2022/11/18 06:32:21;;;;;;;1.90;1.80;;;21.60;93.70;;;;;;6255038;27;94101;-71
2022/11/18 06:35:23;;;;;;;2.53;2.05;;;21.60;93.70;;;;;;6253375;28;95299;-72
2022/11/18 06:38:26;;;;;;;2.95;2.35;;;21.70;93.70;;;;;;6253385;28;94502;-72
2022/11/18 06:41:28;;;;;;;2.40;2.20;;;21.60;93.70;;;;;;6255638;28;94236;-72
2022/11/18 06:44:30;;;;;;;2.03;1.90;;;21.70;93.70;;;;;;6254736;28;93850;-72
2022/11/18 06:47:32;;;;;;;2.00;1.90;;;21.70;93.70;;;;;;6253855;28;94151;-71
2022/11/18 06:50:34;;;;;;;2.00;1.83;;;21.70;93.60;;;;;;6254391;28;92813;-71
2022/11/18 06:53:38;;;;;;;2.40;2.20;;;21.70;93.60;;;;;;6254508;28;94201;-72
2022/11/18 06:56:40;;;;;;;1.95;1.85;;;21.70;93.60;;;;;;6253988;28;93111;-71
2022/11/18 06:59:42;;;;;;;2.17;1.98;;;21.70;93.60;;;;;;6253192;28;95136;-71
2022/11/18 07:02:44;;;;;;;2.10;1.90;;;21.70;93.60;;;;;;6253468;28;94354;-71
2022/11/18 07:05:46;;;;;;;3.03;2.38;;;21.70;93.60;;;;;;6253359;28;94545;-71
2022/11/18 07:08:50;;;;;;;2.33;2.13;;;21.70;93.70;;;;;;6254067;28;94248;-72
2022/11/18 07:11:52;;;;;;;2.60;1.90;;;21.70;93.70;;;;;;6253595;28;94251;-71
2022/11/18 07:14:54;;;;;;;1.90;1.80;;;21.70;93.70;;;;;;6252285;28;94357;-72
2022/11/18 07:17:56;;;;;;;2.28;2.05;;;21.70;93.80;;;;;;6238138;27;93978;-71
2022/11/18 07:21:02;;;;;;;2.28;2.03;;;21.70;93.80;;;;;;6254638;28;93479;-72
2022/11/18 07:24:08;;;;;;;2.40;2.10;;;21.60;93.80;;;;;;6253218;28;93722;-71
2022/11/18 07:27:10;;;;;;;2.35;2.15;;;21.60;93.80;;;;;;6253454;28;94254;-72
2022/11/18 07:30:13;;;;;;;2.30;2.10;;;21.60;93.90;;;;;;6252425;27;95144;-72
2022/11/18 07:33:15;;;;;;;2.08;1.88;;;21.60;94.00;;;;;;6253484;28;94586;-72
2022/11/18 07:36:19;;;;;;;2.20;2.00;;;21.60;93.90;;;;;;6252651;28;94113;-72
2022/11/18 07:39:22;;;;;;;2.10;2.00;;;21.60;93.90;;;;;;6252723;28;94655;-71
2022/11/18 07:42:24;;;;;;;2.28;2.08;;;21.70;93.90;;;;;;6245308;28;94438;-71
2022/11/18 07:45:27;;;;;;;1.98;1.80;;;21.60;93.90;;;;;;6248167;28;94628;-72
2022/11/18 07:48:29;;;;;;;2.13;1.92;;;21.70;93.90;;;;;;6253100;28;94195;-71
2022/11/18 07:51:35;;;;;;;2.00;1.80;;;21.60;93.80;;;;;;6253495;28;93531;-72
2022/11/18 07:54:38;;;;;;;3.50;2.33;;;21.70;93.90;;;;;;6250401;27;94454;-71
2022/11/18 07:57:40;;;;;;;2.58;2.05;;;21.70;93.80;;;;;;6242211;28;94279;-72
2022/11/18 08:00:42;;;;;;;2.10;1.90;;;21.70;93.80;;;;;;6253052;28;95111;-72
2022/11/18 08:03:45;;;;;;;2.10;1.90;;;21.70;93.80;;;;;;6252243;27;94266;-71
2022/11/18 08:06:47;;;;;;;1.90;1.80;;;21.70;93.80;;;;;;6252746;28;94215;-71
2022/11/18 08:09:50;;;;;;;1.98;1.88;;;21.70;93.80;;;;;;6252403;27;94130;-71
2022/11/18 08:12:52;;;;;;;2.05;1.85;;;21.70;93.70;;;;;;6251494;27;94390;-71
2022/11/18 08:15:55;;;;;;;3.58;2.28;;;21.70;93.70;;;;;;6249098;27;94465;-70
2022/11/18 08:18:59;;;;;;;2.92;2.30;;;21.70;93.60;;;;;;6251298;28;94199;-72
2022/11/18 08:22:01;;;;;;;1.95;1.85;;;21.80;93.60;;;;;;6239509;28;93718;-72
2022/11/18 08:25:05;;;;;;;1.90;1.80;;;21.80;93.60;;;;;;6252310;28;94514;-72
2022/11/18 08:28:08;;;;;;;2.05;1.85;;;21.80;93.60;;;;;;6251356;28;94184;-72
2022/11/18 08:31:10;;;;;;;2.10;1.90;;;21.70;93.60;;;;;;6252950;27;95190;-71
2022/11/18 08:34:12;;;;;;;2.00;1.73;;;21.80;93.60;;;;;;6252017;27;94006;-72
2022/11/18 08:37:14;;;;;;;2.33;2.05;;;21.80;93.60;;;;;;6250987;28;94534;-71
2022/11/18 08:40:18;;;;;;;1.75;1.65;;;21.70;93.60;;;;;;6238526;28;94592;-71
2022/11/18 08:43:20;;;;;;;1.77;1.67;;;21.80;93.60;;;;;;6252438;28;94341;-71
2022/11/18 08:46:22;;;;;;;2.28;2.03;;;21.80;93.60;;;;;;6252082;28;94271;-71
2022/11/18 08:49:24;;;;;;;1.92;1.73;;;21.80;93.60;;;;;;6251293;28;94211;-71
2022/11/18 08:52:26;;;;;;;1.80;1.70;;;21.70;93.60;;;;;;6252774;28;93462;-72
2022/11/18 08:55:30;;;;;;;1.70;1.60;;;21.80;93.60;;;;;;6251004;27;94256;-71
2022/11/18 08:58:32;;;;;;;1.85;1.75;;;21.80;93.60;;;;;;6251792;28;94185;-72
2022/11/18 09:01:35;;;;;;;1.75;1.65;;;21.80;93.60;;;;;;6251132;28;95283;-71
2022/11/18 09:04:37;;;;;;;1.75;1.60;;;21.80;93.50;;;;;;6251432;28;94581;-72
2022/11/18 09:07:39;;;;;;;1.98;1.77;;;21.80;93.50;;;;;;6251160;27;94210;-71
2022/11/18 09:10:42;;;;;;;2.33;1.83;;;21.80;93.60;;;;;;6255644;28;94207;-73
2022/11/18 09:13:45;;;;;;;1.70;1.60;;;21.80;93.60;;;;;;6244419;28;94298;-71
2022/11/18 09:16:47;;;;;;;1.77;1.60;;;21.80;93.60;;;;;;6250819;27;94272;-72
2022/11/18 09:19:49;;;;;;;1.70;1.60;;;21.80;93.60;;;;;;6254991;28;94227;-71
2022/11/18 09:22:51;;;;;;;1.60;1.50;;;21.80;93.60;;;;;;6256645;28;93861;-72
2022/11/18 09:25:59;;;;;;;1.77;1.67;;;21.80;93.60;;;;;;6255780;28;94438;-71
2022/11/18 09:29:01;;;;;;;1.80;1.60;;;21.80;93.60;;;;;;6255972;28;93433;-72
2022/11/18 09:32:03;;;;;;;1.60;1.50;;;21.80;93.50;;;;;;6255734;27;94043;-72
2022/11/18 09:35:06;;;;;;;2.95;1.77;;;21.80;93.50;;;;;;6255366;28;94291;-73
2022/11/18 09:38:08;;;;;;;2.22;1.80;;;21.80;93.50;;;;;;6255085;28;94530;-71
2022/11/18 09:41:22;;;;;;;1.95;1.60;;;21.80;93.50;;;;;;6255650;28;94993;-72
2022/11/18 09:44:50;;;;;;;1.83;1.67;;;21.80;93.50;;;;;;6243837;28;94063;-72
2022/11/18 09:47:54;;;;;;;3.20;2.20;;;21.80;93.50;;;;;;6253962;28;93988;-72
2022/11/18 09:50:56;;;;;;;1.83;1.65;;;21.80;93.50;;;;;;6255977;28;94421;-70
2022/11/18 09:53:59;;;;;;;1.83;1.67;;;21.80;93.60;;;;;;6255340;27;93558;-70
2022/11/18 09:57:03;;;;;;;1.42;1.33;;;21.90;93.60;;;;;;6254792;28;93426;-73
2022/11/18 10:00:13;;;;;;;1.60;1.50;;;21.90;93.60;;;;;;6253659;28;94187;-72
2022/11/18 10:03:23;;;;;;;1.80;1.70;;;21.90;93.60;;;;;;6253488;27;96028;-73
2022/11/18 10:06:28;;;;;;;1.70;1.60;;;21.80;93.60;;;;;;6254540;28;94421;-72
2022/11/18 10:09:34;;;;;;;1.63;1.52;;;21.90;93.60;;;;;;6254704;28;94264;-72
2022/11/18 10:12:46;;;;;;;1.60;1.50;;;21.80;93.60;;;;;;6254249;28;94083;-72
2022/11/18 10:15:57;;;;;;;3.30;2.03;;;21.90;93.60;;;;;;6250118;27;94288;-72
2022/11/18 10:19:08;;;;;;;1.65;1.55;;;21.90;93.60;;;;;;6254984;28;94140;-73
2022/11/18 10:22:21;;;;;;;1.48;1.38;;;21.90;93.60;;;;;;6253522;28;93005;-73
2022/11/18 10:25:23;;;;;;;2.08;1.55;;;21.90;93.60;;;;;;6255500;27;93372;-73
2022/11/18 10:28:29;;;;;;;1.40;1.30;;;21.90;93.60;;;;;;6255835;28;93159;-72
2022/11/18 10:31:31;;;;;;;1.50;1.40;;;21.90;93.60;;;;;;6254912;27;94424;-72
2022/11/18 10:34:35;;;;;;;1.58;1.48;;;21.90;93.60;;;;;;6252140;27;95453;-71
2022/11/18 10:37:37;;;;;;;1.50;1.40;;;21.90;93.60;;;;;;6253465;28;94245;-72
2022/11/18 10:40:44;;;;;;;1.60;1.50;;;21.90;93.60;;;;;;6251388;28;94389;-72
2022/11/18 10:43:49;;;;;;;1.50;1.40;;;21.90;93.60;;;;;;6254019;28;94152;-72
2022/11/18 10:46:51;;;;;;;1.30;1.20;;;21.90;93.60;;;;;;6253219;28;94298;-72
2022/11/18 10:49:55;;;;;;;1.80;1.48;;;21.90;93.60;;;;;;6253674;28;94253;-72
2022/11/18 10:52:57;;;;;;;1.50;1.40;;;21.90;94.00;;;;;;6253105;28;94537;-71
2022/11/18 10:56:00;;;;;;;1.98;1.52;;;21.90;93.60;;;;;;6253648;27;93456;-73
2022/11/18 10:59:03;;;;;;;1.40;1.30;;;21.90;93.60;;;;;;6254593;28;94026;-73
2022/11/18 11:02:16;;;;;;;1.45;1.35;;;21.90;93.60;;;;;;6253354;28;94315;-72
2022/11/18 11:05:22;;;;;;;1.30;1.20;;;21.90;93.60;;;;;;6253531;28;95636;-72
2022/11/18 11:08:24;;;;;;;1.50;1.33;;;21.90;93.60;;;;;;6253652;27;94231;-71
2022/11/18 11:11:28;;;;;;;1.27;1.17;;;21.90;93.50;;;;;;6253597;28;94106;-72
2022/11/18 11:14:41;;;;;;;1.40;1.30;;;21.90;93.60;;;;;;6252529;28;94627;-72
2022/11/18 11:18:40;;;;;;;1.30;1.20;;;21.90;93.50;;;;;;6251463;27;94110;-72
2022/11/18 11:21:12;;;;;;;1.42;1.33;;;21.90;93.50;;;;;;6253744;27;93018;-73
2022/11/18 11:24:14;;;;;;;1.40;1.30;;;21.90;93.50;;;;;;6253570;28;94127;-72
2022/11/18 11:27:43;;;;;;;1.33;1.23;;;21.90;93.50;;;;;;6253834;28;92418;-73
2022/11/18 11:30:54;;;;;;;1.52;1.38;;;21.90;93.50;;;;;;6253376;27;94203;-72
2022/11/18 11:34:02;;;;;;;1.35;1.25;;;21.90;93.50;;;;;;6253102;28;94198;-72
2022/11/18 11:37:15;;;;;;;1.95;1.42;;;21.90;93.40;;;;;;6251921;28;94205;-72
2022/11/18 11:40:25;;;;;;;1.63;1.35;;;21.90;93.40;;;;;;6252222;28;94225;-72
2022/11/18 11:43:36;;;;;;;2.22;1.50;;;21.90;93.40;;;;;;6252661;28;94213;-72
2022/11/18 11:47:45;;;;;;;1.73;1.30;;;21.90;93.40;;;;;;6252773;28;94162;-72
2022/11/18 11:50:17;;;;;;;1.17;1.08;;;21.90;93.40;;;;;;6247151;28;92670;-72
2022/11/18 11:53:30;;;;;;;1.20;1.10;;;21.90;93.40;;;;;;6246684;28;94633;-72
2022/11/18 11:56:37;;;;;;;1.20;1.10;;;21.90;93.40;;;;;;6253118;27;94299;-73
2022/11/18 11:59:46;;;;;;;1.20;1.10;;;21.90;93.40;;;;;;6252602;28;93500;-72
2022/11/18 12:03:05;;;;;;;1.42;1.25;;;21.90;93.30;;;;;;6252417;27;93142;-72
2022/11/18 12:06:09;;;;;;;1.20;1.10;;;21.90;93.30;;;;;;6253071;28;93067;-73
2022/11/18 12:09:18;;;;;;;1.35;1.20;;;21.90;93.30;;;;;;6252112;28;95168;-72
2022/11/18 12:12:34;;;;;;;1.85;1.30;;;21.90;93.30;;;;;;6252966;28;93011;-73
2022/11/18 12:15:45;;;;;;;1.10;1.00;;;21.90;93.30;;;;;;6250848;28;94262;-72
2022/11/18 12:18:53;;;;;;;1.20;1.10;;;21.90;93.30;;;;;;6241420;28;94417;-73
2022/11/18 12:22:02;;;;;;;1.20;1.10;;;22.00;93.30;;;;;;6239735;28;94152;-73
2022/11/18 12:25:51;;;;;;;1.10;1.00;;;21.90;93.20;;;;;;6252848;28;92939;-71
2022/11/18 12:28:53;;;;;;;1.25;1.00;;;22.00;93.20;;;;;;6252443;28;93154;-72
2022/11/18 12:31:57;;;;;;;1.52;1.20;;;21.90;93.20;;;;;;6253638;27;93559;-72
2022/11/18 12:35:01;;;;;;;2.13;1.30;;;22.00;93.20;;;;;;6252119;28;94332;-73
2022/11/18 12:38:04;;;;;;;1.52;1.20;;;21.90;93.20;;;;;;6252169;28;94132;-72
2022/11/18 12:45:49;;;;;;;1.10;1.00;;;21.90;93.10;;;;;;6250439;28;92402;-75
2022/11/18 12:48:51;;;;;;;1.10;1.00;;;21.90;93.10;;;;;;6254057;28;94079;-75
2022/11/18 12:51:53;;;;;;;1.02;0.93;;;21.90;93.10;;;;;;6256545;28;94411;-75
2022/11/18 12:54:57;;;;;;;1.15;1.05;;;22.00;93.10;;;;;;6255656;28;94080;-76
2022/11/18 12:57:59;;;;;;;1.10;1.00;;;21.90;93.10;;;;;;6256371;28;94384;-75
2022/11/18 13:01:10;;;;;;;1.60;1.13;;;21.90;93.10;;;;;;6256129;28;94451;-75
2022/11/18 13:04:15;;;;;;;1.77;1.13;;;21.90;93.00;;;;;;6256749;28;93307;-75
2022/11/18 13:10:44;;;;;;;1.40;1.13;;;21.90;93.00;;;;;;6245677;28;93143;-73
2022/11/18 13:13:46;;;;;;;0.85;0.82;;;21.90;93.00;;;;;;6243477;28;95268;-72
2022/11/18 13:20:21;;;;;;;1.10;1.00;;;21.90;93.00;;;;;;6256036;28;92351;-73
2022/11/18 13:26:54;;;;;;;1.15;0.93;;;21.90;93.00;;;;;;6255927;28;92372;-73
2022/11/18 13:30:02;;;;;;;0.95;0.90;;;21.90;93.00;;;;;;6255571;28;94588;-72
2022/11/18 13:33:11;;;;;;;1.13;0.90;;;21.90;93.00;;;;;;6263897;27;94588;-72
2022/11/18 13:36:18;;;;;;;1.85;1.00;;;22.00;93.00;;;;;;6255456;28;93618;-72
2022/11/18 13:39:23;;;;;;;1.67;1.13;;;21.90;93.00;;;;;;6255959;28;94101;-72
2022/11/18 13:42:26;;;;;;;1.27;0.95;;;21.90;93.00;;;;;;6254540;28;94232;-73
2022/11/18 13:45:30;;;;;;;1.13;0.95;;;21.90;93.00;;;;;;6244314;28;95056;-73
2022/11/18 13:48:37;;;;;;;1.08;0.98;;;21.90;93.00;;;;;;6254746;28;92989;-73
2022/11/18 13:51:39;;;;;;;0.75;0.75;;;21.90;93.00;;;;;;6254890;28;94257;-72
2022/11/18 13:54:42;;;;;;;0.95;0.82;;;21.90;93.00;;;;;;6254875;27;94185;-72
2022/11/18 13:57:48;;;;;;;2.08;1.20;;;21.90;93.00;;;;;;6254475;27;94442;-72
2022/11/18 14:00:56;;;;;;;1.00;0.90;;;21.90;93.00;;;;;;6255641;28;94176;-71
2022/11/18 14:04:02;;;;;;;1.50;1.00;;;21.90;93.00;;;;;;6255478;27;94604;-72
2022/11/18 14:07:23;;;;;;;0.90;0.90;;;21.90;93.00;;;;;;6256120;28;93402;-72
2022/11/18 14:10:31;;;;;;;1.10;1.00;;;21.90;92.90;;;;;;6243696;28;94267;-72
2022/11/18 14:13:36;;;;;;;1.10;1.00;;;21.90;93.00;;;;;;6255611;28;96104;-72
2022/11/18 14:16:40;;;;;;;0.80;0.80;;;22.00;93.00;;;;;;6251601;27;95103;-72
2022/11/18 14:19:43;;;;;;;0.90;0.85;;;22.00;93.00;;;;;;6241788;27;93057;-72
2022/11/18 14:22:48;;;;;;;0.88;0.88;;;22.00;93.00;;;;;;6255425;28;94074;-72
2022/11/18 14:25:50;;;;;;;0.93;0.80;;;21.90;92.90;;;;;;6254780;28;94307;-72
2022/11/18 14:28:56;;;;;;;0.98;0.88;;;22.00;93.00;;;;;;6254864;28;94635;-71
2022/11/18 14:32:15;;;;;;;1.00;0.90;;;22.00;93.00;;;;;;6261812;27;94155;-72
2022/11/18 14:35:18;;;;;;;0.98;0.88;;;22.00;92.90;;;;;;6254784;28;94053;-75
2022/11/18 14:38:24;;;;;;;1.00;0.90;;;22.00;92.90;;;;;;6254465;28;93640;-75
2022/11/18 14:44:42;;;;;;;0.90;0.80;;;21.90;93.30;;;;;;6252700;27;93585;-75
2022/11/18 14:47:44;;;;;;;1.02;0.90;;;22.00;93.00;;;;;;6252792;28;95318;-75
2022/11/18 14:50:48;;;;;;;0.95;0.88;;;22.00;93.00;;;;;;6253112;28;94257;-72
2022/11/18 14:53:50;;;;;;;1.00;0.90;;;22.00;93.00;;;;;;6254807;28;94056;-72
2022/11/18 14:56:54;;;;;;;0.98;0.90;;;22.00;93.00;;;;;;6253772;27;94245;-73
2022/11/18 14:59:56;;;;;;;1.10;0.90;;;22.00;93.00;;;;;;6253486;28;94505;-72
2022/11/18 15:02:58;;;;;;;1.48;0.90;;;22.00;93.00;;;;;;6254691;27;94251;-73
2022/11/18 15:06:01;;;;;;;2.15;1.25;;;22.00;93.00;;;;;;6253075;28;94244;-72
2022/11/18 15:09:05;;;;;;;1.25;0.93;;;22.00;92.90;;;;;;6253955;28;92254;-73
2022/11/18 15:12:07;;;;;;;1.00;0.90;;;22.00;93.30;;;;;;6241876;28;94368;-73
2022/11/18 15:15:10;;;;;;;0.98;0.88;;;22.00;92.90;;;;;;6252837;28;94533;-73
2022/11/18 15:18:12;;;;;;;0.75;0.70;;;22.00;92.90;;;;;;6250583;27;95437;-73
2022/11/18 15:21:16;;;;;;;1.20;1.00;;;22.00;92.90;;;;;;6252208;28;94451;-73
2022/11/18 15:24:18;;;;;;;0.90;0.90;;;22.00;92.90;;;;;;6253169;27;94126;-72
2022/11/18 15:27:20;;;;;;;0.82;0.82;;;22.00;92.90;;;;;;6253307;28;93010;-73
2022/11/18 15:30:24;;;;;;;0.70;0.70;;;22.00;92.90;;;;;;6254784;27;94285;-72
2022/11/18 15:33:26;;;;;;;1.42;0.93;;;22.00;92.90;;;;;;6257283;27;94608;-73
2022/11/18 15:36:30;;;;;;;0.90;0.80;;;22.00;92.90;;;;;;6252724;28;93196;-76
2022/11/18 15:39:32;;;;;;;0.80;0.73;;;22.00;92.90;;;;;;6254275;28;93720;-74
2022/11/18 15:42:34;;;;;;;0.98;0.80;;;22.00;92.90;;;;;;6253021;28;94341;-75
2022/11/18 15:45:36;;;;;;;1.25;0.98;;;22.00;92.80;;;;;;6252639;28;94101;-75
2022/11/18 15:48:38;;;;;;;0.80;0.80;;;22.00;92.80;;;;;;6251859;28;95181;-72
2022/11/18 15:51:42;;;;;;;1.33;0.90;;;22.00;92.90;;;;;;6252662;28;94203;-72
2022/11/18 15:54:44;;;;;;;0.80;0.80;;;22.00;92.80;;;;;;6252597;28;93253;-72
2022/11/18 15:57:46;;;;;;;2.63;1.42;;;22.00;92.80;;;;;;6251208;27;94688;-72
2022/11/18 16:00:48;;;;;;;0.80;0.80;;;22.00;92.80;;;;;;6252724;27;94467;-72
2022/11/18 16:03:51;;;;;;;0.73;0.73;;;22.00;92.80;;;;;;6252069;27;93018;-72
2022/11/18 16:06:56;;;;;;;0.70;0.70;;;22.00;92.80;;;;;;6252769;28;93399;-72
2022/11/18 16:13:21;;;;;;;0.95;0.85;;;22.00;92.80;;;;;;6252807;28;92307;-73
2022/11/18 16:16:26;;;;;;;0.80;0.80;;;22.00;92.80;;;;;;6249045;27;94353;-72
2022/11/18 16:19:32;;;;;;;0.85;0.80;;;22.00;92.80;;;;;;6249944;28;95619;-73
2022/11/18 16:22:35;;;;;;;1.00;0.90;;;22.00;92.70;;;;;;6252457;28;94263;-72
2022/11/18 16:25:42;;;;;;;1.10;1.00;;;22.00;92.70;;;;;;6252798;28;94291;-70
2022/11/18 16:28:44;;;;;;;0.95;0.80;;;22.00;92.70;;;;;;6253406;28;94443;-72
2022/11/18 16:31:49;;;;;;;1.02;0.90;;;22.00;92.70;;;;;;6258768;27;94319;-72
2022/11/18 16:34:51;;;;;;;0.82;0.70;;;22.00;92.70;;;;;;6252361;28;94188;-71